CKT7 weather

Wakaw Airport
Wakaw, Saskatchewan, Canada

Public forecast

Using degrees Celsius for public forecast. Weather courtesy of forecast.io.

Closest aviation weather report (METAR) to Wakaw Airport

Closest report is Prince Albert Glass Field, 34.1 nm (63.1 km) N. Retrieved 2020/06/03 15:13 UTC (36 minutes ago):

CYPA 031513Z 20006KT 130V220 15SM VCSH BKN110 BKN140 16/08 A2953 RMK AC5AC2 VCSH NE-E SLP007 DENSITY ALT 2300FT

Closest aviation forecast (TAF) to Wakaw Airport

Closest forecast is Prince Albert Glass Field, 34.1 nm (63.1 km) N. Retrieved 2020/06/03 14:48 UTC (1 hour ago):

TAF CYPA 031345Z 0314/0402 VRB03KT P6SM -SHRA BKN090 OVC120 TEMPO 0314/0318 P6SM NSW FEW090 SCT120 BECMG 0315/0317 27015KT FM031800 27015G25KT P6SM BKN080 TEMPO 0318/0402 P6SM -SHRA BKN050 RMK NXT FCST BY 031900Z